Time;durP1;ratioP1;P1;durP2;ratioP2;P2;SDS_P1;SDS_P2;PMS_P1;PMS_P2;Temp;Humidity;BMP_temperature;BMP_pressure;BME280_temperature;BME280_humidity;BME280_pressure;Samples;Min_cycle;Max_cycle;Signal;HPM_P1;HPM_P2
2023/07/06 04:30:49;;;;;;;;;4.25;4.25;;;;;25.67;40.86;101336.50;5040289;27;45584;-72
2023/07/06 04:33:19;;;;;;;;;6.00;5.25;;;;;25.67;40.33;101339.22;4994836;28;45458;-73
2023/07/06 04:35:51;;;;;;;;;2.50;2.50;;;;;25.69;40.28;101335.28;4976234;28;45518;-75
2023/07/06 04:38:17;;;;;;;;;5.00;4.75;;;;;25.78;40.48;101341.75;4993778;28;45411;-72
2023/07/06 04:40:42;;;;;;;;;7.50;4.75;;;;;25.82;40.28;101340.44;5011943;28;45586;-73
2023/07/06 04:43:10;;;;;;;;;9.00;6.00;;;;;25.61;40.80;101340.69;5013751;28;45332;-71
2023/07/06 04:45:36;;;;;;;;;4.25;3.75;;;;;25.58;41.49;101343.72;5005407;28;45359;-74
2023/07/06 04:48:02;;;;;;;;;8.75;5.75;;;;;25.56;40.95;101352.13;5013387;28;45342;-74
2023/07/06 04:50:28;;;;;;;;;7.50;6.50;;;;;25.42;41.39;101349.03;5009784;28;45245;-75
2023/07/06 04:52:56;;;;;;;;;5.75;5.75;;;;;25.41;41.37;101348.16;4996485;28;45976;-74
2023/07/06 04:55:23;;;;;;;;;7.50;6.00;;;;;25.44;40.74;101356.06;4997097;28;45345;-74
2023/07/06 04:57:51;;;;;;;;;6.75;6.75;;;;;25.38;41.43;101353.06;4995798;28;45346;-73
2023/07/06 05:00:24;;;;;;;;;6.25;6.25;;;;;25.40;41.54;101348.28;4996940;28;45511;-73
2023/07/06 05:02:49;;;;;;;;;6.50;4.75;;;;;25.40;41.06;101351.91;4996765;28;46072;-73
2023/07/06 05:05:16;;;;;;;;;5.50;5.50;;;;;25.40;41.13;101351.03;4996870;28;45579;-74
2023/07/06 05:07:42;;;;;;;;;9.00;8.00;;;;;25.50;41.05;101360.09;4996537;28;45436;-74
2023/07/06 05:10:08;;;;;;;;;8.00;6.25;;;;;25.31;41.40;101346.44;5016710;28;45321;-74
2023/07/06 05:12:34;;;;;;;;;5.00;5.00;;;;;25.25;41.16;101350.69;5016629;28;46343;-74
2023/07/06 05:14:59;;;;;;;;;7.25;6.50;;;;;25.20;41.71;101362.09;5016759;28;45341;-73
2023/07/06 05:17:25;;;;;;;;;7.25;7.00;;;;;25.39;41.32;101355.66;5016473;28;45390;-73
2023/07/06 05:19:50;;;;;;;;;6.25;5.00;;;;;25.43;41.31;101356.25;5016430;28;51074;-75
2023/07/06 05:22:18;;;;;;;;;7.00;5.25;;;;;25.49;41.00;101353.75;5016750;28;46147;-74
2023/07/06 05:24:44;;;;;;;;;8.25;6.25;;;;;25.62;40.84;101356.16;5016556;28;45364;-73
2023/07/06 05:27:10;;;;;;;;;8.00;6.25;;;;;25.82;40.45;101356.91;4998644;28;45467;-72
2023/07/06 05:29:35;;;;;;;;;5.75;5.75;;;;;25.70;40.96;101356.25;5016408;28;45554;-77
2023/07/06 05:32:01;;;;;;;;;8.00;7.00;;;;;25.69;41.11;101356.44;5015988;28;45388;-71
2023/07/06 05:34:26;;;;;;;;;9.50;6.75;;;;;25.73;41.09;101352.34;5016322;28;45329;-73
2023/07/06 05:36:51;;;;;;;;;7.75;6.75;;;;;25.86;41.01;101369.34;5016356;28;45301;-73
2023/07/06 05:39:17;;;;;;;;;7.50;6.00;;;;;25.90;40.90;101360.63;5001168;28;46278;-75
2023/07/06 05:41:43;;;;;;;;;9.00;6.75;;;;;25.95;40.84;101368.38;4996207;28;47068;-75
2023/07/06 05:44:09;;;;;;;;;6.75;6.75;;;;;25.89;40.93;101361.63;5015397;28;45388;-71
2023/07/06 05:46:34;;;;;;;;;8.50;7.75;;;;;26.02;40.17;101358.53;4999866;28;45561;-73
2023/07/06 05:48:59;;;;;;;;;8.00;7.00;;;;;26.10;40.20;101360.50;4995962;28;45354;-74
2023/07/06 05:51:25;;;;;;;;;7.25;5.75;;;;;26.15;39.90;101366.38;5016003;28;45320;-74
2023/07/06 05:53:50;;;;;;;;;7.25;6.50;;;;;26.10;40.20;101352.25;5016334;28;45363;-75
2023/07/06 05:56:18;;;;;;;;;7.00;6.50;;;;;26.17;39.84;101362.47;5016093;28;45489;-74
2023/07/06 05:58:44;;;;;;;;;5.75;5.00;;;;;26.22;40.14;101365.59;5016450;28;45515;-71
2023/07/06 06:01:10;;;;;;;;;6.00;6.00;;;;;26.30;39.77;101368.44;5015549;28;45998;-73
2023/07/06 06:03:35;;;;;;;;;10.00;6.00;;;;;26.48;39.79;101368.44;4996789;28;45470;-71
2023/07/06 06:06:00;;;;;;;;;6.75;5.75;;;;;26.57;39.52;101372.13;5016088;28;45348;-71
2023/07/06 06:08:26;;;;;;;;;7.00;6.00;;;;;26.54;39.51;101361.47;5015880;28;45335;-71
2023/07/06 06:10:52;;;;;;;;;8.75;7.00;;;;;26.65;38.94;101373.06;5015554;28;46163;-69
2023/07/06 06:13:18;;;;;;;;;7.00;6.00;;;;;26.70;39.02;101370.72;5016344;28;45310;-71
2023/07/06 06:15:44;;;;;;;;;10.50;9.00;;;;;26.32;39.53;101373.81;5015770;28;45318;-71
2023/07/06 06:18:09;;;;;;;;;8.00;6.00;;;;;26.48;39.51;101381.34;4997639;28;46049;-71
2023/07/06 06:20:37;;;;;;;;;7.75;7.75;;;;;26.67;39.46;101378.41;5015395;28;46179;-70
2023/07/06 06:23:02;;;;;;;;;12.00;5.75;;;;;26.70;39.16;101386.38;5016008;28;45382;-71
2023/07/06 06:25:28;;;;;;;;;13.50;9.50;;;;;26.68;39.15;101381.00;4997889;28;45664;-69
2023/07/06 06:27:53;;;;;;;;;10.25;10.25;;;;;26.59;38.72;101381.09;5015844;28;45449;-72
2023/07/06 06:30:19;;;;;;;;;10.50;10.50;;;;;26.65;39.11;101377.72;5015571;28;45476;-71
2023/07/06 06:32:44;;;;;;;;;10.50;9.75;;;;;26.50;38.94;101382.03;5015604;28;45295;-70
2023/07/06 06:35:28;;;;;;;;;7.75;7.75;;;;;26.42;39.42;101385.59;5015653;28;45328;-71
2023/07/06 06:37:54;;;;;;;;;9.00;9.00;;;;;26.40;39.14;101384.88;5015715;28;45518;-72
2023/07/06 06:40:20;;;;;;;;;8.50;7.00;;;;;26.57;39.12;101381.25;4997557;28;46477;-70
2023/07/06 06:42:47;;;;;;;;;9.00;9.00;;;;;26.74;39.19;101380.38;5015581;28;45359;-72
2023/07/06 06:45:18;;;;;;;;;6.25;6.25;;;;;26.88;38.65;101378.09;5015236;28;45217;-70
2023/07/06 06:47:45;;;;;;;;;10.50;9.50;;;;;26.75;38.99;101392.25;5015187;28;45347;-71
2023/07/06 06:50:16;;;;;;;;;12.75;9.75;;;;;26.99;38.69;101389.69;5014880;28;46281;-69
2023/07/06 06:52:42;;;;;;;;;9.50;9.50;;;;;26.98;38.50;101395.38;5014910;28;45387;-70
2023/07/06 06:55:08;;;;;;;;;12.00;10.75;;;;;26.78;38.57;101397.44;5015446;28;45351;-71
2023/07/06 06:57:34;;;;;;;;;10.75;8.25;;;;;26.75;38.64;101393.09;5015241;28;45533;-71
2023/07/06 06:59:59;;;;;;;;;12.50;9.00;;;;;26.65;38.35;101386.81;5014464;28;46019;-70
2023/07/06 07:02:25;;;;;;;;;10.50;8.50;;;;;26.69;38.64;101398.38;5015091;28;45380;-72
2023/07/06 07:04:50;;;;;;;;;7.00;6.25;;;;;26.73;37.93;101397.03;5015002;28;45209;-69
2023/07/06 07:07:16;;;;;;;;;8.25;6.00;;;;;26.85;38.29;101387.50;5014990;28;45970;-70
2023/07/06 07:09:44;;;;;;;;;11.00;9.00;;;;;27.09;38.34;101397.84;5014957;28;45367;-71
2023/07/06 07:12:10;;;;;;;;;8.50;8.50;;;;;27.13;37.74;101404.78;5015292;28;45440;-70
2023/07/06 07:14:36;;;;;;;;;8.50;8.50;;;;;27.27;37.76;101404.19;5010882;28;45485;-70
2023/07/06 07:17:03;;;;;;;;;8.25;6.75;;;;;27.42;37.51;101404.44;5014821;28;45294;-71
2023/07/06 07:19:28;;;;;;;;;9.75;8.00;;;;;27.48;37.34;101395.50;5014402;28;46106;-71
2023/07/06 07:21:54;;;;;;;;;6.00;5.00;;;;;27.47;37.16;101397.44;5014841;28;45355;-71
2023/07/06 07:24:19;;;;;;;;;7.50;7.50;;;;;27.59;37.39;101395.25;5014925;28;45379;-71
2023/07/06 07:26:48;;;;;;;;;8.25;6.50;;;;;27.65;36.63;101394.59;5015035;28;45478;-70
2023/07/06 07:29:14;;;;;;;;;15.50;7.00;;;;;27.68;36.63;101396.16;5014894;28;45328;-70
2023/07/06 07:31:41;;;;;;;;;8.00;7.00;;;;;27.77;36.36;101393.28;5014572;28;45312;-70
2023/07/06 07:34:07;;;;;;;;;6.50;4.75;;;;;27.85;36.66;101396.06;5014672;28;45473;-70
2023/07/06 07:36:32;;;;;;;;;7.00;7.00;;;;;27.96;36.86;101391.28;5014713;28;45299;-70
2023/07/06 07:38:58;;;;;;;;;7.25;6.75;;;;;28.04;36.38;101394.94;5014502;28;45378;-71
2023/07/06 07:41:24;;;;;;;;;6.50;6.50;;;;;28.04;36.30;101383.03;5014877;28;45311;-72
2023/07/06 07:43:49;;;;;;;;;6.00;6.00;;;;;28.15;36.00;101389.09;5014686;28;45471;-70
2023/07/06 07:46:17;;;;;;;;;9.00;7.25;;;;;28.24;35.99;101382.56;5014600;28;45486;-70
2023/07/06 07:48:45;;;;;;;;;7.00;6.00;;;;;28.31;36.05;101382.78;5014204;28;45446;-70
2023/07/06 07:51:14;;;;;;;;;4.75;4.75;;;;;28.35;35.35;101380.53;5014365;28;45595;-71
2023/07/06 07:53:40;;;;;;;;;6.75;6.00;;;;;28.44;35.10;101379.50;5014301;28;45441;-72
2023/07/06 07:56:06;;;;;;;;;6.25;6.00;;;;;28.40;34.99;101390.03;5014528;28;46568;-71
2023/07/06 07:58:34;;;;;;;;;7.75;6.00;;;;;28.29;35.09;101372.94;5014219;28;46214;-72
2023/07/06 08:01:02;;;;;;;;;9.00;6.25;;;;;28.27;34.87;101380.53;5014237;28;45360;-69
2023/07/06 08:03:28;;;;;;;;;11.00;6.25;;;;;28.36;34.71;101374.00;5014164;28;45303;-70
2023/07/06 08:06:02;;;;;;;;;6.50;6.50;;;;;28.44;34.29;101380.38;5014136;28;45505;-70
2023/07/06 08:08:29;;;;;;;;;11.00;6.00;;;;;28.53;34.89;101376.59;5014250;28;45388;-71
2023/07/06 08:10:54;;;;;;;;;6.00;4.00;;;;;28.59;34.30;101375.03;5014205;28;45226;-71
2023/07/06 08:13:20;;;;;;;;;2.25;2.25;;;;;28.56;33.80;101367.13;5014375;28;45304;-71
2023/07/06 08:15:47;;;;;;;;;7.50;7.00;;;;;28.40;33.13;101367.97;4996335;28;46650;-71
2023/07/06 08:18:14;;;;;;;;;9.00;6.00;;;;;28.24;33.45;101367.97;5014353;28;46290;-71
2023/07/06 08:20:40;;;;;;;;;5.00;5.00;;;;;28.27;33.82;101369.50;4996431;28;45337;-71
2023/07/06 08:23:10;;;;;;;;;6.50;5.25;;;;;28.30;33.81;101364.50;5014275;28;45461;-70
2023/07/06 08:25:40;;;;;;;;;6.00;5.75;;;;;28.42;33.84;101370.53;5013961;28;45534;-70
2023/07/06 08:28:07;;;;;;;;;5.25;5.25;;;;;28.38;33.46;101366.41;5017563;28;45383;-70
2023/07/06 08:30:35;;;;;;;;;5.50;3.75;;;;;28.43;34.05;101359.34;5017329;28;45285;-71
2023/07/06 08:33:01;;;;;;;;;7.75;4.50;;;;;28.51;33.51;101356.59;5017657;28;45357;-73
2023/07/06 08:35:30;;;;;;;;;7.25;5.50;;;;;28.64;33.87;101355.22;5017572;28;46287;-71
2023/07/06 08:37:57;;;;;;;;;10.00;5.00;;;;;28.76;33.29;101360.22;5017320;28;46161;-71
2023/07/06 08:40:28;;;;;;;;;5.50;5.50;;;;;28.65;31.96;101362.47;5017291;28;45403;-71
2023/07/06 08:42:56;;;;;;;;;4.75;3.50;;;;;28.63;32.96;101359.00;5017767;28;45182;-71
2023/07/06 08:45:34;;;;;;;;;5.75;4.50;;;;;28.64;32.41;101349.69;5017042;28;45444;-70
2023/07/06 08:48:00;;;;;;;;;6.00;4.25;;;;;28.69;32.45;101363.81;5017032;28;46208;-69
2023/07/06 08:50:30;;;;;;;;;3.25;3.25;;;;;28.71;32.98;101356.25;5017026;28;45217;-71
2023/07/06 08:52:56;;;;;;;;;2.25;2.25;;;;;28.73;32.11;101363.31;5017216;28;46822;-70
2023/07/06 08:55:24;;;;;;;;;2.75;1.00;;;;;28.83;32.34;101364.03;5017019;28;45416;-70
2023/07/06 08:57:50;;;;;;;;;3.50;3.50;;;;;28.89;32.16;101365.25;4999179;28;46557;-71
2023/07/06 09:00:23;;;;;;;;;1.00;1.00;;;;;29.00;32.46;101370.41;5017168;28;45422;-70
2023/07/06 09:02:50;;;;;;;;;6.00;4.00;;;;;29.13;31.96;101367.94;4999423;28;45316;-71
2023/07/06 09:05:17;;;;;;;;;2.75;2.75;;;;;29.21;31.87;101367.06;4999093;28;45519;-70
2023/07/06 09:07:44;;;;;;;;;4.00;4.00;;;;;28.99;32.23;101365.91;5016502;28;46422;-72
2023/07/06 09:10:16;;;;;;;;;4.00;2.75;;;;;29.15;31.65;101365.88;5017105;28;45355;-70
2023/07/06 09:12:43;;;;;;;;;4.00;3.00;;;;;28.99;31.41;101363.16;5016979;28;45286;-73
2023/07/06 09:15:13;;;;;;;;;1.25;1.25;;;;;28.90;30.77;101376.09;5017130;28;45266;-70
2023/07/06 09:17:52;;;;;;;;;4.75;3.25;;;;;28.89;31.09;101360.59;4982337;28;47490;-71
2023/07/06 09:20:20;;;;;;;;;7.50;3.50;;;;;29.04;31.59;101366.25;5016874;28;45245;-71
2023/07/06 09:22:47;;;;;;;;;11.25;4.50;;;;;28.96;32.02;101367.13;5016545;28;46335;-71
2023/07/06 09:25:19;;;;;;;;;3.50;3.50;;;;;29.10;31.89;101357.25;5016799;28;45379;-71
2023/07/06 09:27:48;;;;;;;;;4.75;3.50;;;;;29.33;31.62;101372.06;5016616;28;45331;-71
2023/07/06 09:30:36;;;;;;;;;2.25;2.25;;;;;29.25;31.03;101371.22;5016614;28;45327;-71
2023/07/06 09:33:13;;;;;;;;;4.25;3.75;;;;;29.07;31.44;101367.81;5016795;28;45426;-70
2023/07/06 09:35:41;;;;;;;;;6.25;3.50;;;;;29.11;31.31;101364.50;5016410;28;45603;-71
2023/07/06 09:38:12;;;;;;;;;6.75;3.00;;;;;29.10;31.50;101368.28;5015220;28;45447;-71
2023/07/06 09:40:38;;;;;;;;;4.50;3.75;;;;;29.19;31.50;101366.38;5016484;28;45259;-71
2023/07/06 09:43:03;;;;;;;;;6.50;4.00;;;;;29.18;31.14;101356.38;5016721;28;45289;-70
2023/07/06 09:45:30;;;;;;;;;4.00;4.00;;;;;29.31;31.50;101359.44;5016250;28;45354;-70
2023/07/06 09:48:18;;;;;;;;;4.25;4.00;;;;;29.28;31.57;101352.38;4998202;28;47401;-71
2023/07/06 09:50:48;;;;;;;;;4.25;3.75;;;;;29.45;31.59;101364.25;5016167;28;45462;-70
2023/07/06 09:53:24;;;;;;;;;4.25;4.25;;;;;29.53;31.23;101353.19;5015929;28;45354;-70
2023/07/06 09:55:49;;;;;;;;;4.50;3.50;;;;;29.54;30.68;101359.56;5016673;28;45227;-71
2023/07/06 09:58:26;;;;;;;;;2.25;2.25;;;;;29.44;30.66;101356.16;5016023;28;46343;-70
2023/07/06 10:01:10;;;;;;;;;5.75;5.75;;;;;29.54;30.95;101354.91;5016449;28;45338;-71
2023/07/06 10:04:11;;;;;;;;;8.50;4.25;;;;;29.71;30.67;101356.56;5016398;28;45358;-71
2023/07/06 10:06:55;;;;;;;;;4.00;4.00;;;;;29.79;30.00;101360.31;4948137;28;45413;-71
2023/07/06 10:09:27;;;;;;;;;4.00;3.00;;;;;29.83;30.69;101347.88;4997700;28;46203;-70
2023/07/06 10:11:56;;;;;;;;;3.50;2.75;;;;;29.84;29.90;101346.84;5016223;28;45350;-70
2023/07/06 10:14:38;;;;;;;;;6.00;3.75;;;;;29.89;29.60;101349.91;5015949;28;47228;-72
2023/07/06 10:17:24;;;;;;;;;3.50;3.25;;;;;30.03;30.83;101352.78;5016096;28;45545;-71
2023/07/06 10:19:59;;;;;;;;;2.50;2.50;;;;;29.95;29.38;101343.66;5015914;28;46289;-71
2023/07/06 10:23:04;;;;;;;;;4.00;4.00;;;;;30.05;30.06;101345.16;5015878;28;45498;-71
2023/07/06 10:26:02;;;;;;;;;3.75;3.75;;;;;30.04;29.29;101346.19;5015839;28;45347;-70
2023/07/06 10:28:35;;;;;;;;;2.50;2.50;;;;;29.86;28.40;101339.22;4983507;28;45573;-72
2023/07/06 10:31:03;;;;;;;;;4.75;3.50;;;;;29.89;28.67;101345.22;5015550;28;45498;-72
2023/07/06 10:33:28;;;;;;;;;6.25;4.25;;;;;29.97;28.45;101339.69;5015675;28;45451;-74
2023/07/06 10:35:58;;;;;;;;;5.25;2.75;;;;;30.02;28.33;101340.03;5015718;28;45339;-72
2023/07/06 10:38:24;;;;;;;;;3.75;3.00;;;;;29.98;28.53;101346.94;5015432;28;45413;-71
2023/07/06 10:41:12;;;;;;;;;3.00;3.00;;;;;29.93;28.63;101342.97;4997499;28;47946;-71
2023/07/06 10:43:43;;;;;;;;;2.75;2.75;;;;;29.73;29.17;101348.94;5015388;28;45355;-71
2023/07/06 10:46:33;;;;;;;;;3.25;3.25;;;;;29.85;29.08;101348.56;5015546;28;45465;-71
2023/07/06 10:49:31;;;;;;;;;6.00;4.00;;;;;30.00;28.91;101347.63;5014809;28;45391;-71
2023/07/06 10:51:58;;;;;;;;;3.00;2.75;;;;;30.02;28.97;101350.22;4964381;28;47442;-71
2023/07/06 10:54:28;;;;;;;;;5.25;3.00;;;;;29.75;28.12;101342.38;5015424;28;45336;-73
2023/07/06 10:57:18;;;;;;;;;4.25;3.25;;;;;29.91;29.11;101345.06;5015398;28;45492;-72
2023/07/06 10:59:49;;;;;;;;;4.25;4.00;;;;;29.79;28.44;101343.72;5014938;28;45516;-72
2023/07/06 11:02:40;;;;;;;;;3.00;3.00;;;;;29.94;29.01;101328.97;5015444;28;45566;-72
2023/07/06 11:05:31;;;;;;;;;3.25;2.50;;;;;30.07;28.29;101339.47;5015058;28;45335;-70
2023/07/06 11:08:00;;;;;;;;;4.25;4.25;;;;;30.12;28.41;101331.47;5014622;28;45383;-72
2023/07/06 11:10:36;;;;;;;;;6.00;4.25;;;;;30.14;28.53;101334.91;5015114;28;45228;-71
2023/07/06 11:13:02;;;;;;;;;2.75;2.75;;;;;30.20;28.21;101339.69;5015015;28;46241;-71
2023/07/06 11:15:38;;;;;;;;;3.50;2.75;;;;;30.09;27.75;101340.16;5015135;28;45289;-71
2023/07/06 11:18:33;;;;;;;;;3.25;3.25;;;;;30.17;27.84;101330.94;4997266;28;45227;-71
2023/07/06 11:21:08;;;;;;;;;4.75;3.50;;;;;30.06;26.25;101323.91;5014897;28;45465;-73
2023/07/06 11:23:42;;;;;;;;;5.00;3.75;;;;;30.22;27.30;101314.63;5014921;28;46200;-71
2023/07/06 11:26:39;;;;;;;;;2.75;2.75;;;;;30.46;27.40;101322.72;5014839;28;45336;-70
2023/07/06 11:29:08;;;;;;;;;7.75;4.50;;;;;30.62;27.30;101319.88;4997197;28;45321;-71
2023/07/06 11:31:47;;;;;;;;;1.75;1.75;;;;;30.67;26.70;101316.53;5014759;28;46081;-71
2023/07/06 11:34:24;;;;;;;;;5.00;4.75;;;;;30.76;26.83;101318.19;5014632;28;45331;-70
2023/07/06 11:37:12;;;;;;;;;4.00;3.50;;;;;30.86;25.88;101307.69;5014760;28;45399;-72
2023/07/06 11:39:49;;;;;;;;;7.25;4.75;;;;;30.76;25.82;101302.44;4977156;28;45458;-70
2023/07/06 11:42:30;;;;;;;;;4.00;3.00;;;;;30.80;25.84;101316.75;4996765;28;46502;-71
2023/07/06 11:45:03;;;;;;;;;7.75;3.25;;;;;30.89;26.15;101312.84;5014302;28;46337;-71
2023/07/06 11:47:48;;;;;;;;;2.75;2.75;;;;;30.80;24.56;101312.06;5014618;28;45302;-71
2023/07/06 11:50:18;;;;;;;;;4.00;4.00;;;;;31.00;26.16;101306.84;4996287;28;45530;-72
2023/07/06 11:53:09;;;;;;;;;4.75;3.75;;;;;31.15;25.66;101301.34;5014426;28;45422;-72
2023/07/06 11:55:50;;;;;;;;;3.25;3.25;;;;;31.24;25.96;101307.63;5014712;28;46180;-70
2023/07/06 11:58:43;;;;;;;;;2.00;2.00;;;;;31.32;25.70;101302.00;5014321;28;45339;-70
2023/07/06 12:01:32;;;;;;;;;6.00;3.75;;;;;31.33;24.84;101299.03;5013808;28;45244;-72
2023/07/06 12:04:02;;;;;;;;;3.00;3.00;;;;;31.49;24.47;101303.50;5014476;28;45210;-70
2023/07/06 12:06:30;;;;;;;;;4.00;4.00;;;;;31.58;23.70;101305.97;5013963;28;45499;-71
2023/07/06 12:09:00;;;;;;;;;2.00;2.00;;;;;31.62;24.40;101292.63;5014173;28;45467;-71
2023/07/06 12:11:30;;;;;;;;;2.00;2.00;;;;;31.91;24.40;101289.78;5013997;28;45493;-71
2023/07/06 12:13:58;;;;;;;;;2.50;2.50;;;;;32.14;24.74;101297.06;4996419;28;45458;-69
2023/07/06 12:16:27;;;;;;;;;2.25;2.25;;;;;32.14;23.57;101280.41;5014091;28;46548;-71
2023/07/06 12:19:03;;;;;;;;;1.75;1.75;;;;;31.88;22.54;101290.19;5013841;28;45384;-70
2023/07/06 12:21:39;;;;;;;;;4.75;3.75;;;;;31.90;23.38;101288.03;5013534;28;45521;-71
2023/07/06 12:24:10;;;;;;;;;2.75;2.75;;;;;32.15;23.92;101273.81;5011064;28;45538;-70
2023/07/06 12:26:42;;;;;;;;;2.00;1.75;;;;;32.33;22.45;101286.19;5013172;28;45423;-72
2023/07/06 12:29:08;;;;;;;;;3.75;2.00;;;;;32.44;22.87;101284.78;5013204;28;45470;-69
2023/07/06 12:31:34;;;;;;;;;4.75;3.00;;;;;32.14;22.67;101277.66;5013010;28;45499;-70
2023/07/06 12:34:00;;;;;;;;;2.75;2.75;;;;;32.41;22.67;101270.47;5013143;28;45657;-70
2023/07/06 12:36:28;;;;;;;;;5.25;2.50;;;;;32.47;22.71;101269.66;5013559;28;45359;-70
2023/07/06 12:38:55;;;;;;;;;2.25;2.25;;;;;32.80;23.57;101275.50;5013883;28;45318;-73
2023/07/06 12:41:21;;;;;;;;;3.50;3.50;;;;;32.78;21.41;101272.06;5014021;28;45332;-71
2023/07/06 12:43:53;;;;;;;;;3.00;3.00;;;;;32.91;22.87;101264.69;5013742;28;45327;-67
2023/07/06 12:46:21;;;;;;;;;4.00;2.25;;;;;33.02;22.89;101257.69;4980767;28;46318;-71
2023/07/06 12:48:51;;;;;;;;;4.00;2.75;;;;;33.08;22.34;101261.59;5013442;28;45463;-71
2023/07/06 12:51:21;;;;;;;;;3.25;2.25;;;;;33.23;22.94;101254.00;5013669;28;45386;-69
2023/07/06 12:53:49;;;;;;;;;3.50;2.75;;;;;33.29;22.74;101258.72;5000726;28;45373;-69
2023/07/06 12:56:17;;;;;;;;;2.75;2.75;;;;;33.41;22.53;101245.97;5013270;28;46944;-69
2023/07/06 12:58:54;;;;;;;;;5.50;3.25;;;;;33.59;22.82;101243.47;5013803;28;45389;-67
2023/07/06 13:01:21;;;;;;;;;6.00;3.25;;;;;33.71;22.17;101232.56;5013695;28;45604;-72
2023/07/06 13:03:56;;;;;;;;;3.00;3.00;;;;;33.71;22.40;101238.13;5013645;28;45525;-69
2023/07/06 13:06:26;;;;;;;;;4.00;4.00;;;;;33.53;21.78;101230.38;5013405;28;47120;-71
2023/07/06 13:08:56;;;;;;;;;2.00;2.00;;;;;33.60;21.86;101228.47;5013764;28;45377;-71
2023/07/06 13:11:22;;;;;;;;;3.25;2.25;;;;;33.72;22.41;101232.38;5013463;28;45414;-69
2023/07/06 13:13:50;;;;;;;;;6.75;2.75;;;;;33.64;22.59;101228.91;5014982;28;45565;-69
2023/07/06 13:16:18;;;;;;;;;3.00;3.00;;;;;33.56;22.24;101218.84;5016721;28;46428;-72
2023/07/06 13:18:46;;;;;;;;;3.00;3.00;;;;;33.57;21.92;101228.91;5016787;28;45438;-70
2023/07/06 13:21:17;;;;;;;;;4.25;3.00;;;;;33.37;21.86;101228.81;4999505;28;45500;-70
2023/07/06 13:23:44;;;;;;;;;3.75;2.50;;;;;33.30;22.64;101216.81;5016877;28;45414;-71
2023/07/06 13:26:11;;;;;;;;;3.75;3.75;;;;;33.22;22.00;101218.94;4999219;28;45388;-69
2023/07/06 13:28:38;;;;;;;;;3.00;2.75;;;;;33.21;22.17;101215.28;5016604;28;45358;-66
2023/07/06 13:31:04;;;;;;;;;3.75;2.75;;;;;33.17;22.75;101213.97;5016632;28;45242;-70
2023/07/06 13:33:29;;;;;;;;;6.25;4.75;;;;;33.25;22.59;101216.59;5015836;28;45568;-68
2023/07/06 13:35:55;;;;;;;;;3.25;2.25;;;;;33.48;22.78;101212.63;5015544;28;45249;-67
2023/07/06 13:38:21;;;;;;;;;5.00;3.00;;;;;33.62;22.55;101206.00;5012675;28;45573;-68
2023/07/06 13:40:48;;;;;;;;;2.50;2.00;;;;;33.73;21.44;101211.00;5015924;28;45331;-66
2023/07/06 13:43:16;;;;;;;;;5.00;3.75;;;;;33.82;21.18;101200.53;5015242;28;45370;-70
2023/07/06 13:45:43;;;;;;;;;3.50;3.50;;;;;33.89;21.13;101191.13;5014097;28;46225;-69
2023/07/06 13:48:11;;;;;;;;;2.75;2.75;;;;;34.20;21.43;101198.03;5015241;28;45357;-70
2023/07/06 13:50:38;;;;;;;;;2.00;2.00;;;;;34.25;20.53;101198.25;5012580;28;45396;-69
2023/07/06 13:53:03;;;;;;;;;2.00;2.00;;;;;34.26;21.58;101194.41;5014952;28;45500;-67
2023/07/06 13:55:32;;;;;;;;;4.00;4.00;;;;;34.57;21.03;101190.94;4997839;28;46825;-70
2023/07/06 13:57:58;;;;;;;;;3.75;2.75;;;;;34.79;21.67;101190.47;4998173;28;45258;-68
2023/07/06 14:00:27;;;;;;;;;4.00;4.00;;;;;34.95;20.45;101193.88;5016561;28;45491;-69
2023/07/06 14:02:52;;;;;;;;;6.00;3.00;;;;;35.12;20.57;101183.97;4998583;28;45670;-67
2023/07/06 14:05:22;;;;;;;;;3.25;2.00;;;;;35.46;20.08;101183.63;5016327;28;45370;-71
2023/07/06 14:07:48;;;;;;;;;2.75;2.75;;;;;35.61;20.33;101178.59;4998547;28;45496;-69
2023/07/06 14:10:17;;;;;;;;;3.75;3.75;;;;;35.56;19.83;101172.81;5016317;28;45223;-70
2023/07/06 14:12:44;;;;;;;;;3.75;2.75;;;;;35.60;20.00;101174.09;5015734;28;45442;-70
2023/07/06 14:15:10;;;;;;;;;3.75;3.50;;;;;35.46;19.59;101171.59;4998573;28;46155;-71
2023/07/06 14:17:36;;;;;;;;;3.00;3.00;;;;;35.61;19.77;101181.38;5015100;28;45499;-68
2023/07/06 14:20:03;;;;;;;;;4.00;4.00;;;;;35.79;19.79;101177.84;5014942;28;45272;-70
2023/07/06 14:22:29;;;;;;;;;3.00;3.00;;;;;36.08;19.82;101178.25;5014884;28;46380;-69
2023/07/06 14:24:54;;;;;;;;;4.75;4.00;;;;;36.19;20.05;101161.69;5014689;28;45318;-69
2023/07/06 14:27:20;;;;;;;;;2.50;2.50;;;;;35.89;19.24;101164.28;5015270;28;45276;-69
2023/07/06 14:29:45;;;;;;;;;2.00;2.00;;;;;36.06;18.60;101167.34;5014686;28;45272;-68
2023/07/06 14:32:15;;;;;;;;;3.25;2.75;;;;;35.96;19.13;101158.63;5014475;28;45401;-69
2023/07/06 14:34:44;;;;;;;;;3.25;2.25;;;;;36.13;19.58;101164.50;5014642;28;45597;-69
2023/07/06 14:37:11;;;;;;;;;5.00;3.75;;;;;36.42;19.10;101160.16;4994562;28;45520;-68
2023/07/06 14:39:36;;;;;;;;;4.50;3.00;;;;;36.69;18.96;101165.28;5014882;28;45430;-69
2023/07/06 14:42:03;;;;;;;;;3.00;3.00;;;;;36.72;19.67;101169.56;5014655;28;45460;-70
2023/07/06 14:44:30;;;;;;;;;3.75;3.00;;;;;36.79;19.29;101166.69;5014708;28;46218;-70
2023/07/06 14:46:55;;;;;;;;;3.00;3.00;;;;;36.83;19.40;101166.00;5014874;28;45766;-68
2023/07/06 14:49:21;;;;;;;;;4.25;4.25;;;;;37.04;19.30;101164.66;5014947;28;45419;-68
2023/07/06 14:51:46;;;;;;;;;3.00;3.00;;;;;37.13;18.08;101154.88;5014364;28;45536;-69
2023/07/06 14:54:12;;;;;;;;;3.00;3.00;;;;;37.24;18.08;101145.72;5015022;28;45471;-69
2023/07/06 14:56:39;;;;;;;;;3.00;3.00;;;;;37.44;18.33;101149.06;5015184;28;45366;-69
2023/07/06 14:59:05;;;;;;;;;4.00;3.00;;;;;37.70;18.02;101164.66;5015441;28;45465;-70
2023/07/06 15:01:30;;;;;;;;;3.25;2.00;;;;;37.85;17.94;101153.03;5015118;28;45363;-70
2023/07/06 15:03:56;;;;;;;;;2.00;2.00;;;;;37.88;17.30;101146.91;5014922;28;46591;-70
2023/07/06 15:06:21;;;;;;;;;2.50;1.75;;;;;38.02;17.58;101147.56;5015067;28;45411;-70
2023/07/06 15:08:47;;;;;;;;;2.75;2.75;;;;;38.10;17.09;101141.66;5015052;28;45593;-69
2023/07/06 15:11:16;;;;;;;;;2.50;2.50;;;;;38.29;17.47;101140.41;5015054;28;45537;-70
2023/07/06 15:13:41;;;;;;;;;4.25;2.25;;;;;38.48;17.21;101143.94;5015282;28;46023;-69
2023/07/06 15:16:06;;;;;;;;;1.75;1.75;;;;;38.64;17.41;101132.03;5014799;28;45343;-69
2023/07/06 15:18:32;;;;;;;;;3.00;2.00;;;;;38.65;16.68;101135.69;5014053;28;45335;-68
2023/07/06 15:21:09;;;;;;;;;2.50;2.50;;;;;38.25;16.49;101142.03;5015086;28;45431;-69
2023/07/06 15:23:35;;;;;;;;;3.00;3.00;;;;;37.78;17.30;101133.50;5014999;28;46639;-69
2023/07/06 15:26:00;;;;;;;;;5.25;3.50;;;;;37.71;17.26;101132.78;5014766;28;45493;-70
2023/07/06 15:28:25;;;;;;;;;2.50;1.75;;;;;37.85;17.44;101131.47;5014442;28;45485;-68
2023/07/06 15:30:51;;;;;;;;;3.00;3.00;;;;;38.09;17.86;101135.19;5014085;28;51382;-68
2023/07/06 15:33:16;;;;;;;;;5.00;3.00;;;;;38.19;17.22;101121.44;5014831;28;46982;-70
2023/07/06 15:35:42;;;;;;;;;3.00;3.00;;;;;38.33;16.27;101130.44;5014127;28;45505;-70
2023/07/06 15:38:07;;;;;;;;;5.00;2.75;;;;;38.38;16.72;101122.16;5014521;28;45387;-69
2023/07/06 15:40:32;;;;;;;;;4.50;2.25;;;;;38.47;16.86;101125.44;5013513;28;49692;-69
2023/07/06 15:42:58;;;;;;;;;3.00;3.00;;;;;38.60;16.69;101123.28;5013485;28;46093;-70
2023/07/06 15:45:23;;;;;;;;;3.50;3.50;;;;;38.75;16.62;101122.75;5013343;28;45421;-69
2023/07/06 15:47:48;;;;;;;;;4.00;3.00;;;;;38.93;16.64;101124.53;5013218;28;45699;-69
2023/07/06 15:50:15;;;;;;;;;4.50;3.50;;;;;38.94;16.24;101112.22;5013326;28;45525;-70
2023/07/06 15:52:41;;;;;;;;;2.50;2.50;;;;;38.88;16.75;101116.00;5014241;28;46224;-68
2023/07/06 15:55:07;;;;;;;;;5.00;3.75;;;;;39.05;16.75;101111.34;5022752;28;45297;-69
2023/07/06 15:57:33;;;;;;;;;4.00;3.00;;;;;39.28;16.41;101104.81;5013334;28;45399;-69
2023/07/06 15:59:58;;;;;;;;;7.50;4.50;;;;;39.37;15.68;101099.66;5013338;28;45221;-68
2023/07/06 16:02:23;;;;;;;;;3.25;2.00;;;;;39.52;16.34;101091.53;5014667;28;45306;-69
2023/07/06 16:04:49;;;;;;;;;4.25;3.25;;;;;39.78;15.77;101093.69;5013412;28;45422;-69